Indianapolis, Indiana
Traffic Map
Current Weather Conditions
Indianapolis, Indiana
Overcast Haze
Overcast
27°
Feels Like: 22°
Wind Chill: 22° Ceiling: 2800
Heat Index: 27° Visibility: 6mi
Dew Point: 24° Wind: 5mph
Humidity: 89% Direction: 270° (W)
Pressure: 30.29in Gusts: 0mph
Raw Report DataKIND 201254Z 27004KT 6SM BR OVC028 M03/M04 A3029 RMK AO2 SLP265 T10281044
Traffic Incident Summary
Active as of:
Severity:
Category:
InformationThere was an issue retrieving the traffic information for this location. Please try a different location or try again shortly.
Advertisements
Track Severe Weather on mobile